Accueil
METAR-TAF:

METAR-TAF

Aéroports :

Hoorn-a, Pays-Bas

Plate-forme pétrolière

latitude: 52-55-05N, longitude: 4-09-01E, altitude: 41 m

Observation

Le bulletin a été fait il y a 23 minutes, à 09:55 UTC
Vent 17 kt de nord/nord-ouest
Température 7°C
Humidité 76%
Pression 1013 hPa
Visibilité: 9000 m
Quelques nuages à une hauteur de 1200 ft
Nuages épars à une hauteur de 1900 ft
Nuages fragmentés à une hauteur de 2200 ft
pluie faible

METAR: EHQE 280955Z AUTO 33017KT 9000 -RA FEW012 SCT019 BKN022 07/03 Q1013 REUPRA

Heure: 12:18 (10:18 UTC)


TAF: absent

Observations et prévisions météorologiques de plus de 4000 aéroports (messages METAR et TAF).

Les stations disponibles sont représentées par des disques jaunes et rouges sur la carte.

Passer la souris dessus pour voir le nom de la station.

Cliquer dessus pour voir les observations et prévisions météorologiques.

Pour changer de carte: cliquez sur les boutons verts avec une croix noire pour zoomer, sur le bouton vert avec un tiret pour effectuer un zoom arrière, ou sur les flèches vertes pour les cartes adjacentes.


METAR-TAF: